createdAt,value
2017-07-27T00:02:07.923Z,90.79
2017-07-27T00:04:35.734Z,87.56
2017-07-27T00:07:03.615Z,86.86
2017-07-27T00:09:31.325Z,86.40
2017-07-27T00:11:59.068Z,85.40
2017-07-27T00:14:26.782Z,85.71
2017-07-27T00:16:54.607Z,84.52
2017-07-27T00:19:22.476Z,85.53
2017-07-27T00:21:50.231Z,85.64
2017-07-27T00:24:17.991Z,87.38
2017-07-27T00:26:45.798Z,86.36
2017-07-27T00:29:13.503Z,85.58
2017-07-27T00:31:41.233Z,86.63
2017-07-27T00:34:08.919Z,86.60
2017-07-27T00:36:37.568Z,86.29
2017-07-27T00:39:05.303Z,85.64
2017-07-27T00:41:33.016Z,87.14
2017-07-27T00:44:00.798Z,88.10
2017-07-27T00:46:28.528Z,89.66
2017-07-27T00:48:56.316Z,89.94
2017-07-27T00:51:23.989Z,90.53
2017-07-27T00:53:51.833Z,89.91
2017-07-27T00:56:19.605Z,90.72
2017-07-27T00:58:47.342Z,90.60
2017-07-27T01:01:15.092Z,90.77
2017-07-27T01:03:42.812Z,91.33
2017-07-27T01:06:10.604Z,91.33
2017-07-27T01:08:38.318Z,91.29
2017-07-27T01:11:06.013Z,91.87
2017-07-27T01:13:33.756Z,88.60
2017-07-27T01:16:01.507Z,89.38
2017-07-27T01:18:29.217Z,90.11
2017-07-27T01:20:57.162Z,88.32
2017-07-27T01:23:24.871Z,90.39
2017-07-27T01:25:52.577Z,90.54
2017-07-27T01:28:20.373Z,90.38
2017-07-27T01:30:48.071Z,89.95
2017-07-27T01:33:15.788Z,89.07
2017-07-27T01:35:43.645Z,91.37
2017-07-27T01:38:11.353Z,91.26
2017-07-27T01:40:39.206Z,91.70
2017-07-27T01:43:06.993Z,92.23
2017-07-27T01:45:34.693Z,91.59
2017-07-27T01:48:02.506Z,91.10
2017-07-27T01:50:30.244Z,91.79
2017-07-27T01:52:57.937Z,92.28
2017-07-27T01:55:25.735Z,92.62
2017-07-27T01:57:53.467Z,92.38
2017-07-27T02:00:21.260Z,91.86
2017-07-27T02:02:49.417Z,91.82
2017-07-27T02:05:17.128Z,91.73
2017-07-27T02:07:44.916Z,91.06
2017-07-27T02:10:12.700Z,91.13
2017-07-27T02:12:40.408Z,91.17
2017-07-27T02:15:08.168Z,91.27
2017-07-27T02:17:35.925Z,91.60
2017-07-27T02:20:03.699Z,92.03
2017-07-27T02:22:31.392Z,91.54
2017-07-27T02:24:59.114Z,92.38
2017-07-27T02:27:26.887Z,91.52
2017-07-27T02:29:54.600Z,90.98
2017-07-27T02:32:22.354Z,90.90
2017-07-27T02:34:50.094Z,90.90
2017-07-27T02:37:17.798Z,91.06
2017-07-27T02:39:45.773Z,91.17
2017-07-27T02:42:13.493Z,91.18
2017-07-27T02:44:41.322Z,90.61
2017-07-27T02:47:09.072Z,91.07
2017-07-27T02:49:36.830Z,91.35
2017-07-27T02:52:04.688Z,91.24
2017-07-27T02:54:32.446Z,91.09
2017-07-27T02:57:00.144Z,90.93
2017-07-27T02:59:27.943Z,90.95
2017-07-27T03:01:55.673Z,91.29
2017-07-27T03:04:23.485Z,91.10
2017-07-27T03:06:51.160Z,90.75
2017-07-27T03:09:18.923Z,90.85
2017-07-27T03:11:46.624Z,90.79
2017-07-27T03:14:14.610Z,90.81
2017-07-27T03:16:43.265Z,90.93
2017-07-27T03:19:10.986Z,90.79
2017-07-27T03:21:38.720Z,90.54
2017-07-27T03:24:06.472Z,90.43
2017-07-27T03:26:34.219Z,91.01
2017-07-27T03:29:02.050Z,90.85
2017-07-27T03:31:29.831Z,90.94
2017-07-27T03:33:57.527Z,90.79
2017-07-27T03:36:25.304Z,90.87
2017-07-27T03:38:53.051Z,90.67
2017-07-27T03:41:20.819Z,90.70
2017-07-27T03:43:48.615Z,91.54
2017-07-27T03:46:16.686Z,91.12
2017-07-27T03:48:44.429Z,91.51
2017-07-27T03:51:12.142Z,91.79
2017-07-27T03:53:39.882Z,91.45
2017-07-27T03:56:07.762Z,91.83
2017-07-27T03:58:35.487Z,91.50
2017-07-27T04:01:03.250Z,91.57
2017-07-27T04:03:31.026Z,91.21
2017-07-27T04:05:58.724Z,92.07
2017-07-27T04:08:26.595Z,91.92
2017-07-27T04:10:54.309Z,91.74
2017-07-27T04:13:22.016Z,91.06
2017-07-27T04:15:49.746Z,91.16
2017-07-27T04:18:17.545Z,91.23
2017-07-27T04:20:45.225Z,91.25
2017-07-27T04:23:13.034Z,92.08
2017-07-27T04:25:40.841Z,92.08
2017-07-27T04:28:08.593Z,91.71
2017-07-27T04:30:36.299Z,91.40
2017-07-27T04:33:04.080Z,91.90
2017-07-27T04:35:31.928Z,92.41
2017-07-27T04:37:59.620Z,92.36
2017-07-27T04:40:27.498Z,92.02
2017-07-27T04:42:55.192Z,91.37
2017-07-27T04:45:23.031Z,90.79
2017-07-27T04:47:51.241Z,91.04
2017-07-27T04:50:18.941Z,91.08
2017-07-27T04:52:46.640Z,91.80
2017-07-27T04:55:14.427Z,91.51
2017-07-27T04:57:53.805Z,92.02
2017-07-27T05:00:21.742Z,92.45
2017-07-27T05:02:49.447Z,91.90
2017-07-27T05:05:17.157Z,91.92
2017-07-27T05:07:45.401Z,92.20
2017-07-27T05:10:13.197Z,92.14
2017-07-27T05:12:40.902Z,92.04
2017-07-27T05:15:08.682Z,91.75
2017-07-27T05:17:36.458Z,91.49
2017-07-27T05:20:04.189Z,91.40
2017-07-27T05:22:32.057Z,91.31
2017-07-27T05:24:59.767Z,91.11
2017-07-27T05:27:27.556Z,91.40
2017-07-27T05:29:55.364Z,91.02
2017-07-27T05:32:23.048Z,90.38
2017-07-27T05:34:50.814Z,89.98
2017-07-27T05:37:18.649Z,90.72
2017-07-27T05:39:46.846Z,90.75
2017-07-27T05:42:14.637Z,90.48
2017-07-27T05:44:42.404Z,90.60
2017-07-27T05:47:10.253Z,90.15
2017-07-27T05:49:37.993Z,89.92
2017-07-27T05:52:05.867Z,90.00
2017-07-27T05:54:33.613Z,89.80
2017-07-27T05:57:01.344Z,90.16
2017-07-27T05:59:29.118Z,90.25
2017-07-27T06:01:56.867Z,91.14
2017-07-27T06:04:24.697Z,91.81
2017-07-27T06:06:52.492Z,91.66
2017-07-27T06:09:20.171Z,90.47
2017-07-27T06:11:48.040Z,89.53
2017-07-27T06:14:15.781Z,89.57
2017-07-27T06:16:43.533Z,91.01
2017-07-27T06:19:11.356Z,91.67
2017-07-27T06:21:39.075Z,91.91
2017-07-27T06:24:06.914Z,92.09
2017-07-27T06:26:34.640Z,92.00
2017-07-27T06:29:02.471Z,91.73
2017-07-27T06:31:30.351Z,91.67
2017-07-27T06:33:58.134Z,91.55
2017-07-27T06:36:25.917Z,91.29
2017-07-27T06:38:53.706Z,91.43
2017-07-27T06:41:21.526Z,91.08
2017-07-27T06:43:49.331Z,90.67
2017-07-27T06:46:17.356Z,90.16
2017-07-27T06:48:45.048Z,90.71
2017-07-27T06:51:12.835Z,90.16
2017-07-27T06:53:40.546Z,90.99
2017-07-27T06:56:08.370Z,90.22
2017-07-27T06:58:36.178Z,90.28
2017-07-27T07:01:03.947Z,88.68
2017-07-27T07:03:31.704Z,89.15
2017-07-27T07:05:59.417Z,89.63
2017-07-27T07:08:27.159Z,87.98
2017-07-27T07:10:54.972Z,87.45
2017-07-27T07:13:22.706Z,86.48
2017-07-27T07:15:50.530Z,83.60
2017-07-27T07:18:18.231Z,79.92
2017-07-27T07:20:46.013Z,79.72
2017-07-27T07:23:13.752Z,80.42
2017-07-27T07:25:41.565Z,80.10
2017-07-27T07:30:43.156Z,83.16
2017-07-27T07:33:10.990Z,83.21
2017-07-27T07:35:39.509Z,82.90
2017-07-27T07:38:07.316Z,82.96
2017-07-27T07:40:35.247Z,84.38
2017-07-27T07:43:02.935Z,84.95
2017-07-27T07:45:30.705Z,84.66
2017-07-27T07:47:58.437Z,84.31
2017-07-27T07:50:26.129Z,77.81
2017-07-27T07:52:53.920Z,79.15
2017-07-27T07:55:21.644Z,80.14
2017-07-27T07:57:50.040Z,79.17
2017-07-27T08:00:17.819Z,78.55
2017-07-27T08:02:45.720Z,78.74
2017-07-27T08:05:13.424Z,75.79
2017-07-27T08:07:41.219Z,75.31
2017-07-27T08:10:20.595Z,77.14
2017-07-27T08:12:49.004Z,72.88
2017-07-27T08:15:16.740Z,70.27
2017-07-27T08:17:44.556Z,73.60
2017-07-27T08:20:12.331Z,75.30
2017-07-27T08:22:40.041Z,73.81
2017-07-27T08:25:07.745Z,72.77
2017-07-27T08:27:35.690Z,71.60
2017-07-27T08:30:03.450Z,70.80
2017-07-27T08:32:31.338Z,72.34
2017-07-27T08:34:59.057Z,72.92
2017-07-27T08:37:26.832Z,70.25
2017-07-27T08:39:54.596Z,68.39
2017-07-27T08:42:22.350Z,68.13
2017-07-27T08:44:50.179Z,68.77
2017-07-27T08:47:17.892Z,69.68
2017-07-27T08:49:45.869Z,67.92
2017-07-27T08:52:13.697Z,66.12
2017-07-27T08:54:41.486Z,66.19
2017-07-27T08:57:09.229Z,67.13
2017-07-27T08:59:37.071Z,68.32
2017-07-27T09:02:04.812Z,66.77
2017-07-27T09:04:32.657Z,67.44
2017-07-27T09:07:00.443Z,65.46
2017-07-27T09:09:28.157Z,66.31
2017-07-27T09:11:56.562Z,63.49
2017-07-27T09:14:24.347Z,64.79
2017-07-27T09:16:52.114Z,62.66
2017-07-27T09:19:19.818Z,65.06
2017-07-27T09:21:47.815Z,61.14
2017-07-27T09:24:15.797Z,63.70
2017-07-27T09:26:43.968Z,58.69
2017-07-27T09:29:11.932Z,59.99
2017-07-27T09:31:39.690Z,60.89
2017-07-27T09:34:07.481Z,61.25
2017-07-27T09:36:35.188Z,58.33
2017-07-27T09:39:02.951Z,62.38
2017-07-27T09:41:30.740Z,58.66
2017-07-27T09:43:58.454Z,56.72
2017-07-27T09:46:26.281Z,59.20
2017-07-27T09:48:54.023Z,62.95
2017-07-27T09:51:21.795Z,56.75
2017-07-27T09:53:49.531Z,57.90
2017-07-27T09:56:17.238Z,56.13
2017-07-27T09:58:45.020Z,58.87
2017-07-27T10:01:12.735Z,55.76
2017-07-27T10:03:40.490Z,55.50
2017-07-27T10:06:08.306Z,58.33
2017-07-27T10:08:36.058Z,57.22
2017-07-27T10:11:03.839Z,55.75
2017-07-27T10:13:31.544Z,54.10
2017-07-27T10:15:59.273Z,53.66
2017-07-27T10:18:27.053Z,56.11
2017-07-27T10:20:54.736Z,58.55
2017-07-27T10:23:22.569Z,57.85
2017-07-27T10:25:50.495Z,55.11
2017-07-27T10:28:18.364Z,54.92
2017-07-27T10:30:46.128Z,59.88
2017-07-27T10:33:13.837Z,56.23
2017-07-27T10:35:41.603Z,51.35
2017-07-27T10:38:09.345Z,56.61
2017-07-27T10:40:37.085Z,51.87
2017-07-27T10:43:04.856Z,51.27
2017-07-27T10:45:32.612Z,51.66
2017-07-27T10:48:00.333Z,52.44
2017-07-27T10:50:28.084Z,55.40
2017-07-27T10:52:55.776Z,57.35
2017-07-27T10:55:23.565Z,54.22
2017-07-27T10:57:51.320Z,53.90
2017-07-27T11:00:19.350Z,57.35
2017-07-27T11:02:47.100Z,50.39
2017-07-27T11:05:14.843Z,55.12
2017-07-27T11:07:42.630Z,50.67
2017-07-27T11:10:10.422Z,54.39
2017-07-27T11:12:38.105Z,55.73
2017-07-27T11:15:05.816Z,54.46
2017-07-27T11:17:33.575Z,57.37
2017-07-27T11:20:01.449Z,51.60
2017-07-27T11:22:29.154Z,49.48
2017-07-27T11:24:56.863Z,50.92
2017-07-27T11:27:24.627Z,54.25
2017-07-27T11:29:52.432Z,54.78
2017-07-27T11:32:20.388Z,54.61
2017-07-27T11:34:48.169Z,53.56
2017-07-27T11:37:15.968Z,51.25
2017-07-27T11:39:43.799Z,53.14
2017-07-27T11:42:11.729Z,54.25
2017-07-27T11:44:39.453Z,52.59
2017-07-27T11:47:07.264Z,50.86
2017-07-27T11:49:34.995Z,52.09
2017-07-27T11:52:02.859Z,51.89
2017-07-27T11:54:30.643Z,51.30
2017-07-27T11:56:58.461Z,53.94
2017-07-27T11:59:26.248Z,56.17
2017-07-27T12:01:54.025Z,51.40
2017-07-27T12:04:21.800Z,51.26
2017-07-27T12:06:49.500Z,49.52
2017-07-27T12:09:17.257Z,52.09
2017-07-27T12:11:45.022Z,53.37
2017-07-27T12:14:12.764Z,52.26
2017-07-27T12:16:40.565Z,54.24
2017-07-27T12:19:08.327Z,52.89
2017-07-27T12:21:36.132Z,52.87
2017-07-27T12:24:03.860Z,51.15
2017-07-27T12:26:31.644Z,52.80
2017-07-27T12:28:59.389Z,54.33
2017-07-27T12:31:27.099Z,54.11
2017-07-27T12:33:54.881Z,54.37
2017-07-27T12:36:22.607Z,52.23
2017-07-27T12:38:50.395Z,51.18
2017-07-27T12:41:18.180Z,50.99
2017-07-27T12:43:46.061Z,50.82
2017-07-27T12:46:13.767Z,50.39
2017-07-27T12:48:42.688Z,50.76
2017-07-27T12:51:10.450Z,50.69
2017-07-27T12:53:38.152Z,48.49
2017-07-27T12:56:05.929Z,50.70
2017-07-27T12:58:33.764Z,49.51
2017-07-27T13:01:01.492Z,50.13
2017-07-27T13:03:29.285Z,49.23
2017-07-27T13:05:56.973Z,48.22
2017-07-27T13:08:24.811Z,47.27
2017-07-27T13:10:52.591Z,48.25
2017-07-27T13:13:20.723Z,48.58
2017-07-27T13:15:48.632Z,48.78
2017-07-27T13:18:16.357Z,50.59
2017-07-27T13:20:44.111Z,49.52
2017-07-27T13:23:11.963Z,45.90
2017-07-27T13:25:39.776Z,47.55
2017-07-27T13:28:07.488Z,48.76
2017-07-27T13:30:35.218Z,48.03
2017-07-27T13:33:03.003Z,47.18
2017-07-27T13:35:30.684Z,48.07
2017-07-27T13:37:58.576Z,48.38
2017-07-27T13:40:26.412Z,49.44
2017-07-27T13:42:54.103Z,49.42
2017-07-27T13:45:21.878Z,48.16
2017-07-27T13:47:49.586Z,48.88
2017-07-27T13:50:17.676Z,48.43
2017-07-27T13:52:45.444Z,49.56
2017-07-27T13:55:13.226Z,52.11
2017-07-27T13:57:41.059Z,51.19
2017-07-27T14:00:08.855Z,52.26
2017-07-27T14:02:36.638Z,50.55
2017-07-27T14:05:04.432Z,53.08
2017-07-27T14:07:32.152Z,56.47
2017-07-27T14:09:59.913Z,54.57
2017-07-27T14:12:27.718Z,55.46
2017-07-27T14:14:55.406Z,54.78
2017-07-27T14:17:23.141Z,57.00
2017-07-27T14:19:50.827Z,55.70
2017-07-27T14:22:18.664Z,55.38
2017-07-27T14:24:46.462Z,54.01
2017-07-27T14:27:14.213Z,50.92
2017-07-27T14:29:41.940Z,54.64
2017-07-27T14:32:09.652Z,56.27
2017-07-27T14:34:37.419Z,57.44
2017-07-27T14:37:05.156Z,57.70
2017-07-27T14:39:33.186Z,60.48
2017-07-27T14:42:00.929Z,54.03
2017-07-27T14:44:29.127Z,56.98
2017-07-27T14:46:56.998Z,57.36
2017-07-27T14:49:25.636Z,58.54
2017-07-27T14:51:53.362Z,54.33
2017-07-27T14:54:22.786Z,55.79
2017-07-27T14:56:50.808Z,54.47
2017-07-27T14:59:18.566Z,52.47
2017-07-27T15:01:46.399Z,57.38
2017-07-27T15:04:14.214Z,61.94
2017-07-27T15:06:41.957Z,61.78
2017-07-27T15:09:09.765Z,61.41
2017-07-27T15:11:37.553Z,61.03
2017-07-27T15:14:05.304Z,61.89
2017-07-27T15:16:33.140Z,63.36
2017-07-27T15:19:01.048Z,64.35
2017-07-27T15:21:28.768Z,64.85
2017-07-27T15:23:57.354Z,64.27
2017-07-27T15:26:28.845Z,64.68
2017-07-27T15:28:56.695Z,65.26
2017-07-27T15:31:24.481Z,65.34
2017-07-27T15:33:52.477Z,67.23
2017-07-27T15:36:20.158Z,65.73
2017-07-27T15:38:47.937Z,64.82
2017-07-27T15:41:15.653Z,64.34
2017-07-27T15:43:43.413Z,65.88
2017-07-27T15:46:11.208Z,66.96
2017-07-27T15:48:38.979Z,65.90
2017-07-27T15:51:06.925Z,64.22
2017-07-27T15:53:34.629Z,66.29
2017-07-27T15:56:02.419Z,64.49
2017-07-27T15:58:30.248Z,65.65
2017-07-27T16:00:57.951Z,66.45
2017-07-27T16:03:25.804Z,66.30
2017-07-27T16:05:53.572Z,64.94
2017-07-27T16:08:22.942Z,66.09
2017-07-27T16:10:51.109Z,67.95
2017-07-27T16:13:18.860Z,67.68
2017-07-27T16:15:47.286Z,66.14
2017-07-27T16:18:15.152Z,68.84
2017-07-27T16:20:45.266Z,68.72
2017-07-27T16:23:13.112Z,69.86
2017-07-27T16:25:40.889Z,70.99
2017-07-27T16:28:08.638Z,68.57
2017-07-27T16:30:36.394Z,71.35
2017-07-27T16:33:04.148Z,71.05
2017-07-27T16:35:31.947Z,73.00
2017-07-27T16:37:59.730Z,73.83
2017-07-27T16:40:27.660Z,72.71
2017-07-27T16:42:55.434Z,72.97
2017-07-27T16:45:23.248Z,73.97
2017-07-27T16:47:50.967Z,72.77
2017-07-27T16:50:18.744Z,73.32
2017-07-27T16:52:46.534Z,72.34
2017-07-27T16:55:14.434Z,73.84
2017-07-27T16:57:42.267Z,71.72
2017-07-27T17:00:10.657Z,71.49
2017-07-27T17:02:38.478Z,74.08
2017-07-27T17:05:06.445Z,70.87
2017-07-27T17:07:34.213Z,70.70
2017-07-27T17:10:01.986Z,68.97
2017-07-27T17:12:29.730Z,68.18
2017-07-27T17:14:57.580Z,70.19
2017-07-27T17:17:26.351Z,70.82
2017-07-27T17:19:54.160Z,73.43
2017-07-27T17:22:22.135Z,74.92
2017-07-27T17:24:50.005Z,70.73
2017-07-27T17:27:18.058Z,70.08
2017-07-27T17:29:46.338Z,69.23
2017-07-27T17:32:14.111Z,67.88
2017-07-27T17:34:41.893Z,70.50
2017-07-27T17:37:09.826Z,70.80
2017-07-27T17:39:37.609Z,69.34
2017-07-27T17:42:05.650Z,71.04
2017-07-27T17:44:34.755Z,68.48
2017-07-27T17:47:11.596Z,67.75
2017-07-27T17:49:40.055Z,67.90
2017-07-27T17:52:09.083Z,68.00
2017-07-27T17:54:38.186Z,69.02
2017-07-27T17:57:06.089Z,69.16
2017-07-27T17:59:33.950Z,70.72
2017-07-27T18:02:03.347Z,72.72
2017-07-27T18:04:31.889Z,73.33
2017-07-27T18:07:00.151Z,73.45
2017-07-27T18:09:28.964Z,74.30
2017-07-27T18:11:57.895Z,74.68
2017-07-27T18:14:27.096Z,74.23
2017-07-27T18:16:55.021Z,74.74
2017-07-27T18:19:23.256Z,74.43
2017-07-27T18:21:52.791Z,74.30
2017-07-27T18:24:21.542Z,75.02
2017-07-27T18:26:51.828Z,74.05
2017-07-27T18:29:21.254Z,74.69
2017-07-27T18:31:49.398Z,73.37
2017-07-27T18:34:18.718Z,73.82
2017-07-27T18:36:47.627Z,73.78
2017-07-27T18:39:15.742Z,74.16
2017-07-27T18:41:44.112Z,75.29
2017-07-27T18:44:12.021Z,74.37
2017-07-27T18:46:39.959Z,75.62
2017-07-27T18:49:07.739Z,75.00
2017-07-27T18:51:35.566Z,71.48
2017-07-27T18:54:03.533Z,69.13
2017-07-27T18:56:31.471Z,69.27
2017-07-27T18:58:59.379Z,70.14
2017-07-27T19:01:27.670Z,70.94
2017-07-27T19:03:56.533Z,70.59
2017-07-27T19:06:25.020Z,71.10
2017-07-27T19:08:53.278Z,71.55
2017-07-27T19:11:22.999Z,71.53
2017-07-27T19:13:52.297Z,71.98
2017-07-27T19:16:21.457Z,73.41
2017-07-27T19:18:50.508Z,74.46
2017-07-27T19:21:18.422Z,74.37
2017-07-27T19:23:47.158Z,76.14
2017-07-27T19:26:14.962Z,76.32
2017-07-27T19:28:42.742Z,74.22
2017-07-27T19:31:10.508Z,74.12
2017-07-27T19:33:38.451Z,74.80
2017-07-27T19:36:06.243Z,76.16
2017-07-27T19:38:34.176Z,75.59
2017-07-27T19:41:01.981Z,76.00
2017-07-27T19:43:29.696Z,75.80
2017-07-27T19:45:57.730Z,75.81
2017-07-27T19:48:25.665Z,76.90
2017-07-27T19:50:53.719Z,77.17
2017-07-27T19:53:21.461Z,78.05
2017-07-27T19:55:49.259Z,78.53
2017-07-27T19:58:17.143Z,78.40
2017-07-27T20:00:50.814Z,78.08
2017-07-27T20:03:19.595Z,77.75
2017-07-27T20:05:47.427Z,77.63
2017-07-27T20:08:15.316Z,78.93
2017-07-27T20:10:43.354Z,78.05
2017-07-27T20:13:11.354Z,80.21
2017-07-27T20:15:39.273Z,80.13
2017-07-27T20:18:07.092Z,79.68
2017-07-27T20:20:34.995Z,80.98
2017-07-27T20:23:02.800Z,80.66
2017-07-27T20:25:30.781Z,81.86
2017-07-27T20:27:58.704Z,81.41
2017-07-27T20:30:26.712Z,80.96
2017-07-27T20:32:54.604Z,80.11
2017-07-27T20:35:22.488Z,81.08
2017-07-27T20:37:50.372Z,81.61
2017-07-27T20:40:18.289Z,81.50
2017-07-27T20:42:46.955Z,81.56
2017-07-27T20:45:14.916Z,81.35
2017-07-27T20:47:42.801Z,81.60
2017-07-27T20:50:10.829Z,81.81
2017-07-27T20:52:39.403Z,81.90
2017-07-27T20:55:07.324Z,81.57
2017-07-27T20:57:35.402Z,81.62
2017-07-27T21:00:03.155Z,81.45
2017-07-27T21:02:30.934Z,81.29
2017-07-27T21:04:58.756Z,81.34
2017-07-27T21:07:26.581Z,82.68
2017-07-27T21:09:54.446Z,81.58
2017-07-27T21:12:22.414Z,82.10
2017-07-27T21:14:50.301Z,82.48
2017-07-27T21:17:18.006Z,82.79
2017-07-27T21:19:45.967Z,82.41
2017-07-27T21:22:13.928Z,82.00
2017-07-27T21:24:41.773Z,82.26
2017-07-27T21:27:09.499Z,82.44
2017-07-27T21:29:37.378Z,82.32
2017-07-27T21:32:05.733Z,83.10
2017-07-27T21:34:33.587Z,83.05
2017-07-27T21:37:01.442Z,83.89
2017-07-27T21:39:29.391Z,83.49
2017-07-27T21:41:57.244Z,83.06
2017-07-27T21:44:25.086Z,82.86
2017-07-27T21:46:53.049Z,83.09
2017-07-27T21:49:20.889Z,84.02
2017-07-27T21:51:48.629Z,84.36
2017-07-27T21:54:16.445Z,83.25
2017-07-27T21:56:44.237Z,83.32
2017-07-27T21:59:12.037Z,83.54
2017-07-27T22:01:39.815Z,83.62
2017-07-27T22:04:07.717Z,83.31
2017-07-27T22:06:35.701Z,83.30
2017-07-27T22:09:03.595Z,83.23
2017-07-27T22:11:31.444Z,84.14
2017-07-27T22:13:59.357Z,84.75
2017-07-27T22:16:27.168Z,84.28
2017-07-27T22:18:54.993Z,83.84
2017-07-27T22:21:23.840Z,84.46
2017-07-27T22:23:52.834Z,84.91
2017-07-27T22:26:21.556Z,85.22
2017-07-27T22:28:50.124Z,84.66
2017-07-27T22:31:18.154Z,84.63
2017-07-27T22:33:46.070Z,84.57
2017-07-27T22:36:13.811Z,84.84
2017-07-27T22:38:41.575Z,84.19
2017-07-27T22:41:09.527Z,84.58
2017-07-27T22:43:37.441Z,84.44
2017-07-27T22:46:05.600Z,84.88
2017-07-27T22:48:33.336Z,85.88
2017-07-27T22:51:01.179Z,84.73
2017-07-27T22:53:29.100Z,85.05
2017-07-27T22:55:56.853Z,85.68
2017-07-27T22:58:24.776Z,85.21
2017-07-27T23:00:52.686Z,85.43
2017-07-27T23:03:20.628Z,85.09
2017-07-27T23:05:48.529Z,85.01
2017-07-27T23:08:16.231Z,86.11
2017-07-27T23:10:43.928Z,85.60
2017-07-27T23:13:11.888Z,85.61
2017-07-27T23:15:39.641Z,84.97
2017-07-27T23:18:07.492Z,84.88
2017-07-27T23:20:35.301Z,84.72
2017-07-27T23:23:03.339Z,84.62
2017-07-27T23:25:31.152Z,85.98
2017-07-27T23:27:58.959Z,85.35
2017-07-27T23:30:26.846Z,85.80
2017-07-27T23:32:54.578Z,85.55
2017-07-27T23:35:22.533Z,85.46
2017-07-27T23:37:50.368Z,85.78
2017-07-27T23:40:18.195Z,85.06
2017-07-27T23:42:46.079Z,85.15
2017-07-27T23:45:13.849Z,84.87
2017-07-27T23:47:41.631Z,85.27
2017-07-27T23:50:09.565Z,86.25
2017-07-27T23:52:37.409Z,86.07
2017-07-27T23:55:05.336Z,86.10
2017-07-27T23:57:33.293Z,86.68
